createdAt,value
2019-02-18T00:00:00.346Z,4.90
2019-02-18T00:02:48.671Z,4.90
2019-02-18T00:05:36.910Z,4.80
2019-02-18T00:08:25.796Z,4.80
2019-02-18T00:11:13.883Z,4.80
2019-02-18T00:14:02.270Z,4.80
2019-02-18T00:16:50.218Z,4.70
2019-02-18T00:19:38.632Z,4.60
2019-02-18T00:22:26.621Z,4.60
2019-02-18T00:25:14.918Z,4.60
2019-02-18T00:28:03.139Z,4.60
2019-02-18T00:30:51.734Z,4.60
2019-02-18T00:33:39.903Z,4.60
2019-02-18T00:36:28.621Z,4.60
2019-02-18T00:39:16.894Z,4.50
2019-02-18T00:42:05.176Z,4.40
2019-02-18T00:44:53.525Z,4.40
2019-02-18T00:47:42.048Z,4.40
2019-02-18T00:50:30.850Z,4.40
2019-02-18T00:53:19.343Z,4.30
2019-02-18T00:56:07.667Z,4.30
2019-02-18T00:58:55.719Z,4.30
2019-02-18T01:01:44.099Z,4.30
2019-02-18T01:04:31.595Z,4.20
2019-02-18T01:07:19.599Z,4.20
2019-02-18T01:10:08.552Z,4.10
2019-02-18T01:12:56.994Z,4.10
2019-02-18T01:15:45.167Z,4.10
2019-02-18T01:18:33.551Z,4.00
2019-02-18T01:21:21.615Z,4.10
2019-02-18T01:24:10.083Z,4.00
2019-02-18T01:26:58.767Z,4.00
2019-02-18T01:29:46.698Z,4.00
2019-02-18T01:32:35.184Z,4.00
2019-02-18T01:35:23.807Z,4.00
2019-02-18T01:38:12.271Z,4.00
2019-02-18T01:41:00.606Z,4.00
2019-02-18T01:43:48.778Z,4.00
2019-02-18T01:46:37.395Z,3.90
2019-02-18T01:49:25.279Z,3.90
2019-02-18T01:52:13.227Z,3.90
2019-02-18T01:55:01.442Z,3.90
2019-02-18T01:57:50.304Z,3.90
2019-02-18T02:00:38.676Z,3.90
2019-02-18T02:03:27.383Z,3.90
2019-02-18T02:06:15.827Z,3.90
2019-02-18T02:09:06.195Z,3.90
2019-02-18T02:11:54.517Z,3.80
2019-02-18T02:14:43.271Z,3.90
2019-02-18T02:17:31.503Z,3.80
2019-02-18T02:20:20.014Z,3.80
2019-02-18T02:23:07.560Z,3.80
2019-02-18T02:25:56.105Z,3.80
2019-02-18T02:28:43.872Z,3.70
2019-02-18T02:31:32.622Z,3.70
2019-02-18T02:34:20.873Z,3.70
2019-02-18T02:37:09.000Z,3.60
2019-02-18T02:39:57.474Z,3.60
2019-02-18T02:42:45.630Z,3.60
2019-02-18T02:45:34.083Z,3.60
2019-02-18T02:48:22.281Z,3.60
2019-02-18T02:51:10.653Z,3.60
2019-02-18T02:53:58.848Z,3.60
2019-02-18T02:56:47.380Z,3.50
2019-02-18T02:59:35.575Z,3.50
2019-02-18T03:02:24.226Z,3.50
2019-02-18T03:05:12.622Z,3.50
2019-02-18T03:08:00.663Z,3.40
2019-02-18T03:10:48.841Z,3.40
2019-02-18T03:13:37.596Z,3.40
2019-02-18T03:16:25.714Z,3.40
2019-02-18T03:19:13.963Z,3.30
2019-02-18T03:22:01.454Z,3.30
2019-02-18T03:25:14.650Z,3.30
2019-02-18T03:28:23.203Z,3.30
2019-02-18T03:31:15.794Z,3.20
2019-02-18T03:34:17.763Z,3.20
2019-02-18T03:37:05.938Z,3.20
2019-02-18T03:39:54.147Z,3.20
2019-02-18T03:42:42.060Z,3.10
2019-02-18T03:45:30.007Z,3.10
2019-02-18T03:48:18.068Z,3.10
2019-02-18T03:51:06.185Z,3.10
2019-02-18T03:53:54.403Z,3.10
2019-02-18T03:56:42.575Z,3.10
2019-02-18T03:59:30.907Z,3.00
2019-02-18T04:02:19.241Z,3.00
2019-02-18T04:05:08.074Z,2.90
2019-02-18T04:07:56.871Z,2.90
2019-02-18T04:10:44.768Z,2.90
2019-02-18T04:13:33.025Z,2.90
2019-02-18T04:16:21.349Z,2.90
2019-02-18T04:19:09.113Z,2.90
2019-02-18T04:21:57.315Z,2.90
2019-02-18T04:24:45.539Z,2.80
2019-02-18T04:27:33.543Z,2.70
2019-02-18T04:30:22.431Z,2.70
2019-02-18T04:33:10.650Z,2.70
2019-02-18T04:35:59.296Z,2.70
2019-02-18T04:38:54.092Z,2.70
2019-02-18T04:41:37.334Z,2.70
2019-02-18T04:44:25.863Z,2.60
2019-02-18T04:47:14.050Z,2.60
2019-02-18T04:50:02.235Z,2.60
2019-02-18T04:52:50.680Z,2.60
2019-02-18T04:55:39.415Z,2.50
2019-02-18T04:58:27.632Z,2.50
2019-02-18T05:01:15.778Z,2.50
2019-02-18T05:04:03.973Z,2.50
2019-02-18T05:06:52.351Z,2.50
2019-02-18T05:09:40.607Z,2.50
2019-02-18T05:12:29.110Z,2.40
2019-02-18T05:15:17.295Z,2.40
2019-02-18T05:18:05.836Z,2.40
2019-02-18T05:20:54.181Z,2.40
2019-02-18T05:23:42.391Z,2.30
2019-02-18T05:26:30.791Z,2.20
2019-02-18T05:29:18.955Z,2.20
2019-02-18T05:32:07.707Z,2.20
2019-02-18T05:34:55.875Z,2.10
2019-02-18T05:37:43.863Z,2.20
2019-02-18T05:40:31.663Z,2.10
2019-02-18T05:43:20.174Z,2.20
2019-02-18T05:46:08.777Z,2.20
2019-02-18T05:48:57.352Z,2.10
2019-02-18T05:51:45.284Z,2.10
2019-02-18T05:54:33.788Z,2.10
2019-02-18T05:57:23.002Z,2.10
2019-02-18T06:00:11.844Z,2.10
2019-02-18T06:03:00.259Z,2.10
2019-02-18T06:05:48.407Z,2.10
2019-02-18T06:08:36.402Z,2.10
2019-02-18T06:11:24.718Z,2.00
2019-02-18T06:14:12.954Z,2.10
2019-02-18T06:17:02.849Z,2.00
2019-02-18T06:19:51.423Z,1.90
2019-02-18T06:22:39.847Z,1.90
2019-02-18T06:25:28.015Z,2.00
2019-02-18T06:28:16.254Z,1.90
2019-02-18T06:31:05.095Z,1.90
2019-02-18T06:33:53.582Z,1.90
2019-02-18T06:36:41.727Z,1.90
2019-02-18T06:39:40.227Z,1.90
2019-02-18T06:42:19.995Z,1.90
2019-02-18T06:45:30.827Z,1.90
2019-02-18T06:48:30.777Z,2.00
2019-02-18T06:51:18.724Z,2.00
2019-02-18T06:54:07.339Z,2.00
2019-02-18T06:57:08.076Z,2.00
2019-02-18T07:00:01.321Z,2.00
2019-02-18T07:02:59.367Z,2.00
2019-02-18T07:06:05.584Z,2.00
2019-02-18T07:08:59.337Z,2.10
2019-02-18T07:11:52.841Z,2.10
2019-02-18T07:14:40.879Z,2.20
2019-02-18T07:17:28.406Z,2.20
2019-02-18T07:20:16.676Z,2.30
2019-02-18T07:23:05.243Z,2.40
2019-02-18T07:25:53.601Z,2.60
2019-02-18T07:28:41.663Z,2.70
2019-02-18T07:31:30.046Z,2.90
2019-02-18T07:34:18.295Z,3.50
2019-02-18T07:37:06.764Z,4.90
2019-02-18T07:40:01.091Z,6.40
2019-02-18T07:42:43.859Z,6.60
2019-02-18T07:45:31.926Z,6.90
2019-02-18T07:48:20.391Z,7.30
2019-02-18T07:51:09.149Z,7.70
2019-02-18T07:53:57.175Z,8.10
2019-02-18T07:56:45.817Z,8.30
2019-02-18T07:59:34.164Z,7.80
2019-02-18T08:02:22.260Z,7.20
2019-02-18T08:05:10.899Z,6.80
2019-02-18T08:07:58.901Z,6.60
2019-02-18T08:10:47.131Z,6.50
2019-02-18T08:13:35.817Z,6.50
2019-02-18T08:16:23.368Z,6.60
2019-02-18T08:19:11.457Z,6.70
2019-02-18T08:21:59.672Z,6.70
2019-02-18T08:24:48.274Z,6.80
2019-02-18T08:27:35.926Z,6.90
2019-02-18T08:30:24.227Z,7.20
2019-02-18T08:33:12.752Z,8.00
2019-02-18T08:36:01.289Z,8.90
2019-02-18T08:38:49.264Z,9.80
2019-02-18T08:41:37.496Z,11.00
2019-02-18T08:44:25.827Z,11.70
2019-02-18T08:47:13.688Z,12.20
2019-02-18T08:50:02.056Z,12.70
2019-02-18T08:52:49.602Z,12.70
2019-02-18T08:55:38.363Z,12.60
2019-02-18T08:58:26.847Z,11.90
2019-02-18T09:01:15.253Z,11.40
2019-02-18T09:04:04.005Z,11.20
2019-02-18T09:06:53.430Z,11.40
2019-02-18T09:09:41.638Z,11.30
2019-02-18T09:12:29.766Z,11.40
2019-02-18T09:15:17.924Z,12.20
2019-02-18T09:18:06.364Z,13.60
2019-02-18T09:20:54.807Z,14.00
2019-02-18T09:23:47.888Z,14.00
2019-02-18T09:26:36.266Z,14.50
2019-02-18T09:29:24.775Z,15.60
2019-02-18T09:32:13.423Z,17.00
2019-02-18T09:35:02.398Z,18.60
2019-02-18T09:37:50.468Z,19.30
2019-02-18T09:40:44.588Z,19.90
2019-02-18T09:43:28.606Z,20.90
2019-02-18T09:46:17.503Z,21.10
2019-02-18T09:49:08.517Z,21.10
2019-02-18T09:51:56.772Z,21.70
2019-02-18T09:54:45.023Z,22.70
2019-02-18T09:57:33.656Z,23.90
2019-02-18T10:00:21.716Z,24.30
2019-02-18T10:03:12.951Z,23.30
2019-02-18T10:06:13.479Z,23.90
2019-02-18T10:09:06.243Z,24.00
2019-02-18T10:12:20.922Z,25.20
2019-02-18T10:15:02.177Z,24.80
2019-02-18T10:17:51.149Z,24.00
2019-02-18T10:20:41.665Z,24.30
2019-02-18T10:23:30.121Z,24.10
2019-02-18T10:26:29.749Z,25.00
2019-02-18T10:29:17.582Z,25.20
2019-02-18T10:32:05.814Z,24.90
2019-02-18T10:34:54.905Z,24.10
2019-02-18T10:37:54.893Z,23.70
2019-02-18T10:40:37.496Z,23.60
2019-02-18T10:43:32.421Z,23.60
2019-02-18T10:46:15.392Z,23.70
2019-02-18T10:49:16.732Z,23.40
2019-02-18T10:51:54.809Z,23.30
2019-02-18T10:54:44.061Z,23.80
2019-02-18T10:57:32.764Z,24.80
2019-02-18T11:00:21.148Z,24.90
2019-02-18T11:03:09.092Z,25.90
2019-02-18T11:05:58.393Z,26.40
2019-02-18T11:08:46.549Z,27.10
2019-02-18T11:11:34.833Z,27.20
2019-02-18T11:14:22.893Z,27.40
2019-02-18T11:17:11.568Z,28.20
2019-02-18T11:20:00.308Z,28.20
2019-02-18T11:22:48.282Z,27.00
2019-02-18T11:25:36.893Z,26.30
2019-02-18T11:28:24.727Z,27.10
2019-02-18T11:31:12.808Z,27.20
2019-02-18T11:34:01.744Z,27.60
2019-02-18T11:36:50.019Z,26.30
2019-02-18T11:39:38.053Z,27.70
2019-02-18T11:42:26.607Z,27.10
2019-02-18T11:45:14.781Z,26.60
2019-02-18T11:48:03.065Z,27.00
2019-02-18T11:50:51.405Z,28.30
2019-02-18T11:53:39.413Z,29.30
2019-02-18T11:56:27.372Z,29.00
2019-02-18T11:59:24.010Z,30.00
2019-02-18T12:02:05.737Z,28.90
2019-02-18T12:04:54.645Z,27.90
2019-02-18T12:07:43.037Z,28.30
2019-02-18T12:10:31.552Z,28.50
2019-02-18T12:13:19.908Z,28.10
2019-02-18T12:16:07.775Z,28.90
2019-02-18T12:18:55.624Z,28.10
2019-02-18T12:21:44.060Z,27.60
2019-02-18T12:24:33.246Z,27.30
2019-02-18T12:27:21.918Z,28.40
2019-02-18T12:30:11.832Z,28.80
2019-02-18T12:33:00.350Z,29.10
2019-02-18T12:35:49.188Z,30.20
2019-02-18T12:38:37.693Z,29.60
2019-02-18T12:41:25.226Z,28.60
2019-02-18T12:44:13.321Z,29.00
2019-02-18T12:47:01.725Z,29.60
2019-02-18T12:49:51.079Z,29.70
2019-02-18T12:52:40.603Z,30.00
2019-02-18T12:55:28.757Z,29.90
2019-02-18T12:58:17.489Z,28.60
2019-02-18T13:01:07.045Z,29.00
2019-02-18T13:03:55.373Z,29.00
2019-02-18T13:06:43.516Z,28.50
2019-02-18T13:09:31.740Z,27.30
2019-02-18T13:12:21.683Z,28.40
2019-02-18T13:15:11.272Z,29.10
2019-02-18T13:17:59.087Z,29.30
2019-02-18T13:20:47.700Z,28.60
2019-02-18T13:23:35.840Z,28.20
2019-02-18T13:26:24.461Z,28.20
2019-02-18T13:29:13.594Z,28.20
2019-02-18T13:32:02.515Z,28.10
2019-02-18T13:34:50.780Z,28.00
2019-02-18T13:37:39.148Z,27.90
2019-02-18T13:40:26.878Z,27.70
2019-02-18T13:43:15.532Z,27.30
2019-02-18T13:46:04.030Z,27.40
2019-02-18T13:48:52.395Z,27.90
2019-02-18T13:51:40.763Z,28.50
2019-02-18T13:54:28.894Z,28.30
2019-02-18T13:57:17.328Z,26.80
2019-02-18T14:00:07.484Z,26.60
2019-02-18T14:02:55.164Z,26.30
2019-02-18T14:05:43.602Z,26.20
2019-02-18T14:08:31.787Z,26.00
2019-02-18T14:11:19.825Z,26.20
2019-02-18T14:14:07.808Z,26.50
2019-02-18T14:16:56.155Z,26.60
2019-02-18T14:19:44.961Z,27.30
2019-02-18T14:22:33.836Z,26.50
2019-02-18T14:25:22.404Z,26.10
2019-02-18T14:28:10.639Z,26.00
2019-02-18T14:30:58.932Z,26.00
2019-02-18T14:33:47.063Z,26.10
2019-02-18T14:36:35.528Z,26.90
2019-02-18T14:39:25.096Z,26.70
2019-02-18T14:42:13.448Z,26.70
2019-02-18T14:45:02.120Z,27.50
2019-02-18T14:47:50.532Z,27.60
2019-02-18T14:50:38.764Z,27.80
2019-02-18T14:53:27.096Z,28.00
2019-02-18T14:56:18.417Z,28.10
2019-02-18T14:59:08.052Z,27.60
2019-02-18T15:01:56.665Z,27.30
2019-02-18T15:04:45.175Z,27.70
2019-02-18T15:07:34.196Z,28.60
2019-02-18T15:10:22.980Z,27.90
2019-02-18T15:13:11.247Z,26.50
2019-02-18T15:15:59.525Z,26.40
2019-02-18T15:18:47.908Z,26.70
2019-02-18T15:21:36.696Z,26.80
2019-02-18T15:24:25.589Z,27.30
2019-02-18T15:27:14.731Z,26.70
2019-02-18T15:30:02.566Z,26.40
2019-02-18T15:32:50.652Z,25.50
2019-02-18T15:35:39.244Z,25.30
2019-02-18T15:38:26.897Z,25.40
2019-02-18T15:41:15.073Z,24.80
2019-02-18T15:44:02.977Z,24.30
2019-02-18T15:46:50.905Z,24.50
2019-02-18T15:49:39.606Z,24.30
2019-02-18T15:52:28.874Z,23.70
2019-02-18T15:55:17.471Z,23.10
2019-02-18T15:58:05.844Z,22.70
2019-02-18T16:00:54.921Z,22.50
2019-02-18T16:03:43.119Z,22.30
2019-02-18T16:06:32.211Z,22.30
2019-02-18T16:09:20.344Z,22.20
2019-02-18T16:12:08.669Z,21.70
2019-02-18T16:14:56.620Z,21.10
2019-02-18T16:17:45.045Z,20.30
2019-02-18T16:20:32.941Z,19.90
2019-02-18T16:23:20.963Z,19.40
2019-02-18T16:26:09.849Z,18.90
2019-02-18T16:28:58.011Z,18.40
2019-02-18T16:31:46.503Z,17.70
2019-02-18T16:34:34.995Z,17.20
2019-02-18T16:37:23.236Z,17.00
2019-02-18T16:40:13.799Z,16.60
2019-02-18T16:43:02.175Z,16.40
2019-02-18T16:45:49.905Z,16.30
2019-02-18T16:48:38.912Z,16.10
2019-02-18T16:51:27.260Z,16.00
2019-02-18T16:54:15.883Z,15.80
2019-02-18T16:57:05.271Z,15.70
2019-02-18T16:59:53.383Z,15.60
2019-02-18T17:02:41.479Z,15.50
2019-02-18T17:05:29.851Z,15.40
2019-02-18T17:08:18.268Z,15.20
2019-02-18T17:11:06.396Z,15.10
2019-02-18T17:13:54.009Z,15.00
2019-02-18T17:16:42.308Z,14.90
2019-02-18T17:19:29.980Z,14.80
2019-02-18T17:22:18.987Z,14.80
2019-02-18T17:25:08.288Z,14.70
2019-02-18T17:27:57.035Z,14.60
2019-02-18T17:30:45.776Z,14.40
2019-02-18T17:33:34.802Z,14.40
2019-02-18T17:36:22.909Z,14.40
2019-02-18T17:39:11.192Z,14.40
2019-02-18T17:41:59.455Z,14.40
2019-02-18T17:44:48.040Z,14.20
2019-02-18T17:47:36.708Z,14.20
2019-02-18T17:50:25.315Z,14.10
2019-02-18T17:53:13.664Z,14.10
2019-02-18T17:56:01.964Z,14.00
2019-02-18T17:58:50.213Z,13.90
2019-02-18T18:01:38.200Z,13.90
2019-02-18T18:04:26.704Z,13.90
2019-02-18T18:07:15.077Z,13.80
2019-02-18T18:10:03.434Z,13.80
2019-02-18T18:12:50.996Z,13.70
2019-02-18T18:15:39.177Z,13.50
2019-02-18T18:18:27.320Z,13.50
2019-02-18T18:21:14.998Z,13.50
2019-02-18T18:24:03.467Z,13.40
2019-02-18T18:26:51.475Z,13.40
2019-02-18T18:29:40.127Z,13.40
2019-02-18T18:32:28.580Z,13.30
2019-02-18T18:35:17.111Z,13.20
2019-02-18T18:38:05.559Z,13.10
2019-02-18T18:40:53.823Z,13.00
2019-02-18T18:43:42.063Z,12.90
2019-02-18T18:46:30.176Z,12.90
2019-02-18T18:49:17.716Z,12.90
2019-02-18T18:52:06.175Z,12.80
2019-02-18T18:54:54.450Z,12.80
2019-02-18T18:57:43.442Z,12.80
2019-02-18T19:00:32.500Z,12.70
2019-02-18T19:03:21.450Z,12.60
2019-02-18T19:06:09.975Z,12.50
2019-02-18T19:08:59.243Z,12.50
2019-02-18T19:11:47.532Z,12.40
2019-02-18T19:14:35.730Z,12.40
2019-02-18T19:17:23.498Z,12.30
2019-02-18T19:20:12.062Z,12.10
2019-02-18T19:22:59.597Z,12.10
2019-02-18T19:25:47.850Z,12.10
2019-02-18T19:28:42.387Z,12.10
2019-02-18T19:31:30.498Z,12.00
2019-02-18T19:34:18.579Z,11.90
2019-02-18T19:37:07.060Z,11.90
2019-02-18T19:39:54.639Z,11.90
2019-02-18T19:42:43.104Z,11.80
2019-02-18T19:45:30.978Z,11.80
2019-02-18T19:48:19.848Z,11.80
2019-02-18T19:51:07.863Z,11.70
2019-02-18T19:53:55.386Z,11.60
2019-02-18T19:56:43.460Z,11.60
2019-02-18T19:59:32.217Z,11.60
2019-02-18T20:02:20.319Z,11.50
2019-02-18T20:05:09.180Z,11.60
2019-02-18T20:07:57.336Z,11.50
2019-02-18T20:10:44.987Z,11.50
2019-02-18T20:13:34.138Z,11.40
2019-02-18T20:16:21.944Z,11.30
2019-02-18T20:19:10.763Z,11.20
2019-02-18T20:21:59.335Z,11.20
2019-02-18T20:24:47.736Z,11.20
2019-02-18T20:27:36.258Z,11.20
2019-02-18T20:30:24.922Z,11.20
2019-02-18T20:33:13.202Z,11.10
2019-02-18T20:36:01.338Z,11.10
2019-02-18T20:38:53.678Z,11.10
2019-02-18T20:41:42.347Z,11.10
2019-02-18T20:44:30.610Z,11.00
2019-02-18T20:47:19.042Z,11.00
2019-02-18T20:50:08.459Z,11.00
2019-02-18T20:52:56.918Z,10.90
2019-02-18T20:55:45.195Z,10.90
2019-02-18T20:58:34.290Z,10.80
2019-02-18T21:01:23.479Z,10.80
2019-02-18T21:04:11.507Z,10.70
2019-02-18T21:06:59.538Z,10.70
2019-02-18T21:09:47.835Z,10.70
2019-02-18T21:12:35.446Z,10.70
2019-02-18T21:15:23.208Z,10.60
2019-02-18T21:18:13.863Z,10.60
2019-02-18T21:21:02.910Z,10.60
2019-02-18T21:23:51.262Z,10.60
2019-02-18T21:26:39.559Z,10.60
2019-02-18T21:29:27.514Z,10.60
2019-02-18T21:32:16.063Z,10.60
2019-02-18T21:35:04.662Z,10.60
2019-02-18T21:37:52.781Z,10.50
2019-02-18T21:40:41.219Z,10.50
2019-02-18T21:43:29.303Z,10.40
2019-02-18T21:46:16.907Z,10.40
2019-02-18T21:49:05.143Z,10.40
2019-02-18T21:51:53.616Z,10.40
2019-02-18T21:54:41.815Z,10.40
2019-02-18T21:57:30.373Z,10.30
2019-02-18T22:00:19.734Z,10.30
2019-02-18T22:03:07.483Z,10.20
2019-02-18T22:05:55.295Z,10.20
2019-02-18T22:08:43.783Z,10.10
2019-02-18T22:11:32.576Z,10.10
2019-02-18T22:14:20.826Z,10.10
2019-02-18T22:17:08.894Z,10.00
2019-02-18T22:19:56.878Z,10.00
2019-02-18T22:22:45.604Z,9.90
2019-02-18T22:25:33.892Z,10.00
2019-02-18T22:28:22.443Z,9.90
2019-02-18T22:31:10.884Z,9.90
2019-02-18T22:33:59.159Z,9.90
2019-02-18T22:36:47.935Z,9.80
2019-02-18T22:39:35.775Z,9.80
2019-02-18T22:42:23.956Z,9.70
2019-02-18T22:45:12.470Z,9.70
2019-02-18T22:48:00.116Z,9.70
2019-02-18T22:50:48.618Z,9.70
2019-02-18T22:53:37.000Z,9.80
2019-02-18T22:56:25.779Z,9.80
2019-02-18T22:59:13.399Z,9.80
2019-02-18T23:02:02.046Z,9.90
2019-02-18T23:04:50.071Z,9.90
2019-02-18T23:07:38.319Z,9.90
2019-02-18T23:10:26.475Z,10.00
2019-02-18T23:13:15.070Z,10.00
2019-02-18T23:16:03.182Z,10.00
2019-02-18T23:18:50.666Z,10.00
2019-02-18T23:21:40.558Z,10.00
2019-02-18T23:24:28.902Z,10.00
2019-02-18T23:27:16.991Z,10.00
2019-02-18T23:30:06.049Z,10.00
2019-02-18T23:32:54.062Z,10.00
2019-02-18T23:35:42.572Z,10.00
2019-02-18T23:38:30.892Z,10.00
2019-02-18T23:41:18.822Z,10.00
2019-02-18T23:44:07.419Z,10.00
2019-02-18T23:46:55.958Z,10.00
2019-02-18T23:49:44.716Z,9.90
2019-02-18T23:52:32.558Z,9.90
2019-02-18T23:55:21.042Z,9.90
2019-02-18T23:58:08.811Z,9.90
